Time;durP1;ratioP1;P1;durP2;ratioP2;P2;SDS_P1;SDS_P2;PMS_P1;PMS_P2;Temp;Humidity;BMP_temperature;BMP_pressure;BME280_temperature;BME280_humidity;BME280_pressure;Samples;Min_cycle;Max_cycle;Signal;HPM_P1;HPM_P2
2022/04/05 00:01:23;;;;;;;0.20;0.20;;;6.20;99.90;;;;;;5029780;28;20040;-68
2022/04/05 00:03:48;;;;;;;0.10;0.10;;;6.20;99.90;;;;;;5017806;28;20462;-67
2022/04/05 00:06:14;;;;;;;0.10;0.10;;;6.20;99.90;;;;;;5017906;28;20045;-68
2022/04/05 00:08:40;;;;;;;0.10;0.10;;;6.30;99.90;;;;;;5010316;28;20026;-66
2022/04/05 00:11:05;;;;;;;0.10;0.10;;;6.30;99.90;;;;;;5005878;28;20555;-70
2022/04/05 00:13:31;;;;;;;0.10;0.10;;;6.30;99.90;;;;;;4998956;28;20034;-68
2022/04/05 00:15:56;;;;;;;0.10;0.10;;;6.20;99.90;;;;;;5008710;28;20511;-69
2022/04/05 00:18:22;;;;;;;0.10;0.10;;;6.30;99.90;;;;;;5009397;28;20018;-67
2022/04/05 00:20:48;;;;;;;0.10;0.10;;;6.30;99.90;;;;;;5009383;28;20147;-68
2022/04/05 00:23:14;;;;;;;0.10;0.10;;;6.30;99.90;;;;;;5029637;28;20045;-66
2022/04/05 00:25:40;;;;;;;0.10;0.10;;;6.30;99.90;;;;;;5029690;28;20063;-67
2022/04/05 00:28:06;;;;;;;0.10;0.10;;;6.30;99.90;;;;;;5020706;28;20492;-67
2022/04/05 00:30:32;;;;;;;0.10;0.10;;;6.30;99.90;;;;;;4994761;28;20048;-67
2022/04/05 00:32:57;;;;;;;0.82;0.82;;;6.30;99.90;;;;;;5009120;28;20026;-68
2022/04/05 00:35:23;;;;;;;0.10;0.10;;;6.30;99.90;;;;;;5016920;28;20029;-67
2022/04/05 00:37:49;;;;;;;0.10;0.10;;;6.30;99.90;;;;;;4989888;28;20037;-67
2022/04/05 00:40:15;;;;;;;0.43;0.43;;;6.30;99.90;;;;;;4990442;28;20030;-67
2022/04/05 00:42:41;;;;;;;0.10;0.10;;;6.30;99.90;;;;;;4989929;28;20542;-66
2022/04/05 00:45:09;;;;;;;0.10;0.10;;;6.30;99.90;;;;;;4990674;28;20046;-66
2022/04/05 00:47:35;;;;;;;0.10;0.10;;;6.30;99.90;;;;;;4994467;28;20097;-66
2022/04/05 00:50:04;;;;;;;0.50;0.50;;;6.30;99.90;;;;;;5008943;28;20034;-66
2022/04/05 00:52:29;;;;;;;0.10;0.10;;;6.30;99.90;;;;;;5008057;28;20107;-66
2022/04/05 00:54:58;;;;;;;0.10;0.10;;;6.30;99.90;;;;;;5009466;28;20034;-66
2022/04/05 00:57:24;;;;;;;0.38;0.38;;;6.30;99.90;;;;;;5022758;28;20118;-67
2022/04/05 00:59:54;;;;;;;0.90;0.90;;;6.30;99.90;;;;;;5019016;28;20022;-68
2022/04/05 01:02:21;;;;;;;0.10;0.10;;;6.30;99.90;;;;;;5015561;28;20075;-67
2022/04/05 01:04:47;;;;;;;0.10;0.10;;;6.30;99.90;;;;;;5023302;28;20088;-67
2022/04/05 01:07:18;;;;;;;0.10;0.10;;;6.30;99.90;;;;;;5008465;28;20025;-68
2022/04/05 01:09:44;;;;;;;0.10;0.10;;;6.30;99.90;;;;;;5001161;28;20088;-67
2022/04/05 01:12:11;;;;;;;0.10;0.10;;;6.30;99.90;;;;;;4994277;28;20030;-66
2022/04/05 01:14:38;;;;;;;0.10;0.10;;;6.30;99.90;;;;;;5002565;28;20034;-66
2022/04/05 01:17:05;;;;;;;0.10;0.10;;;6.30;99.90;;;;;;5009561;28;20029;-66
2022/04/05 01:19:32;;;;;;;0.10;0.10;;;6.30;99.90;;;;;;4993566;28;20121;-67
2022/04/05 01:21:58;;;;;;;0.10;0.10;;;6.30;99.90;;;;;;5023707;28;20022;-67
2022/04/05 01:24:24;;;;;;;0.10;0.10;;;6.30;99.90;;;;;;5012242;28;20030;-67
2022/04/05 01:26:52;;;;;;;1.27;1.27;;;6.30;99.90;;;;;;5008676;28;20101;-67
2022/04/05 01:29:20;;;;;;;0.10;0.10;;;6.40;99.90;;;;;;4993609;28;20091;-67
2022/04/05 01:31:53;;;;;;;0.15;0.15;;;6.40;99.90;;;;;;4996455;28;20430;-66
2022/04/05 01:34:21;;;;;;;;;;;6.40;99.90;;;;;;5028122;28;20029;-67
2022/04/05 01:36:52;;;;;;;0.10;0.10;;;6.30;99.90;;;;;;5012184;28;20035;-66
2022/04/05 01:39:21;;;;;;;0.10;0.10;;;6.30;99.90;;;;;;5012968;28;20022;-67
2022/04/05 01:41:54;;;;;;;0.10;0.10;;;6.30;99.90;;;;;;5010813;28;20073;-66
2022/04/05 01:44:20;;;;;;;0.10;0.10;;;6.30;99.90;;;;;;4993615;28;20029;-67
2022/04/05 01:46:46;;;;;;;0.10;0.10;;;6.30;99.90;;;;;;4992888;28;20026;-67
2022/04/05 01:49:15;;;;;;;0.10;0.10;;;6.30;99.90;;;;;;4993698;28;20030;-67
2022/04/05 01:51:42;;;;;;;0.20;0.20;;;6.30;99.90;;;;;;4993709;28;20056;-66
2022/04/05 01:54:10;;;;;;;0.30;0.30;;;6.30;99.90;;;;;;5030681;28;20485;-67
2022/04/05 01:56:46;;;;;;;1.30;1.30;;;6.20;99.90;;;;;;5023756;28;20036;-67
2022/04/05 01:59:17;;;;;;;0.10;0.10;;;6.20;99.90;;;;;;5024027;28;20036;-66
2022/04/05 02:01:43;;;;;;;0.10;0.10;;;6.20;99.90;;;;;;5012369;28;20112;-67
2022/04/05 02:04:10;;;;;;;0.10;0.10;;;6.20;99.90;;;;;;5012364;28;20065;-67
2022/04/05 02:06:40;;;;;;;0.47;0.47;;;6.20;99.90;;;;;;5011692;28;20042;-67
2022/04/05 02:09:06;;;;;;;0.10;0.10;;;6.20;99.90;;;;;;5007262;28;20052;-68
2022/04/05 02:11:32;;;;;;;0.10;0.10;;;6.10;99.90;;;;;;4993008;28;20030;-66
2022/04/05 02:13:58;;;;;;;0.10;0.10;;;6.10;99.90;;;;;;5006978;28;20388;-68
2022/04/05 02:16:25;;;;;;;0.20;0.20;;;6.10;99.90;;;;;;5010010;28;20037;-67
2022/04/05 02:18:50;;;;;;;0.10;0.10;;;6.10;99.90;;;;;;4992006;28;20532;-67
2022/04/05 02:21:16;;;;;;;0.10;0.10;;;6.10;99.90;;;;;;5005465;28;20029;-67
2022/04/05 02:23:42;;;;;;;0.10;0.10;;;6.10;99.90;;;;;;5012132;28;20381;-68
2022/04/05 02:26:08;;;;;;;0.30;0.30;;;6.10;99.90;;;;;;4994022;28;20144;-67
2022/04/05 02:28:34;;;;;;;0.10;0.10;;;6.40;99.90;;;;;;4992377;28;20026;-67
2022/04/05 02:31:00;;;;;;;1.10;1.10;;;6.10;99.90;;;;;;5014953;28;20022;-69
2022/04/05 02:33:26;;;;;;;0.13;0.13;;;6.00;99.90;;;;;;5030117;28;20512;-68
2022/04/05 02:35:52;;;;;;;0.40;0.40;;;6.10;99.90;;;;;;5009146;28;20483;-68
2022/04/05 02:38:18;;;;;;;0.10;0.10;;;6.10;99.90;;;;;;5011715;28;20025;-67
2022/04/05 02:40:44;;;;;;;0.25;0.25;;;6.00;99.90;;;;;;5011694;28;20026;-67
2022/04/05 02:43:10;;;;;;;0.10;0.10;;;6.00;99.90;;;;;;4997106;28;20081;-67
2022/04/05 02:45:36;;;;;;;0.10;0.10;;;6.00;99.90;;;;;;4991772;28;20030;-66
2022/04/05 02:48:03;;;;;;;1.65;1.55;;;5.90;99.90;;;;;;5009517;28;20067;-67
2022/04/05 02:50:28;;;;;;;0.10;0.10;;;6.00;99.90;;;;;;5031067;28;20102;-67
2022/04/05 02:52:54;;;;;;;0.10;0.10;;;6.00;99.90;;;;;;5024126;28;20508;-66
2022/04/05 02:55:20;;;;;;;0.10;0.10;;;6.00;99.90;;;;;;5014444;28;20026;-68
2022/04/05 02:57:46;;;;;;;0.20;0.20;;;6.00;99.90;;;;;;4991679;28;20027;-66
2022/04/05 03:00:15;;;;;;;0.43;0.43;;;6.00;99.90;;;;;;4991714;28;20034;-67
2022/04/05 03:02:42;;;;;;;0.10;0.10;;;6.10;99.90;;;;;;4991815;28;20494;-68
2022/04/05 03:05:08;;;;;;;0.10;0.10;;;6.00;99.90;;;;;;4996010;28;20121;-67
2022/04/05 03:07:35;;;;;;;0.10;0.10;;;6.10;99.90;;;;;;4991211;28;20022;-67
2022/04/05 03:10:06;;;;;;;0.10;0.10;;;6.10;99.90;;;;;;4991712;28;20062;-67
2022/04/05 03:12:32;;;;;;;0.43;0.43;;;6.10;99.90;;;;;;4991396;28;20022;-67
2022/04/05 03:14:58;;;;;;;0.50;0.50;;;5.70;99.90;;;;;;4991614;28;20030;-68
2022/04/05 03:17:24;;;;;;;0.10;0.10;;;6.00;99.90;;;;;;4991208;28;20117;-68
2022/04/05 03:19:49;;;;;;;0.10;0.10;;;6.10;99.90;;;;;;4992788;28;20042;-67
2022/04/05 03:22:16;;;;;;;0.10;0.10;;;6.10;99.90;;;;;;5002032;28;20022;-67
2022/04/05 03:24:42;;;;;;;0.55;0.55;;;6.10;99.90;;;;;;4991194;28;20022;-68
2022/04/05 03:27:08;;;;;;;0.10;0.10;;;6.10;99.90;;;;;;4990673;28;20034;-68
2022/04/05 03:29:35;;;;;;;0.10;0.10;;;6.10;99.90;;;;;;4991471;28;20485;-68
2022/04/05 03:32:01;;;;;;;0.10;0.10;;;6.10;99.90;;;;;;5026207;28;20037;-67
2022/04/05 03:34:27;;;;;;;0.20;0.20;;;6.10;99.90;;;;;;5027842;28;20021;-68
2022/04/05 03:36:54;;;;;;;0.10;0.10;;;6.10;99.90;;;;;;5010402;28;20101;-67
2022/04/05 03:39:20;;;;;;;0.10;0.10;;;6.20;99.90;;;;;;5010023;28;20149;-67
2022/04/05 03:41:45;;;;;;;0.10;0.10;;;6.10;99.90;;;;;;5001365;28;20061;-67
2022/04/05 03:44:11;;;;;;;0.10;0.10;;;6.20;99.90;;;;;;5013331;28;20504;-66
2022/04/05 03:46:37;;;;;;;0.17;0.17;;;6.20;99.90;;;;;;5029742;28;20044;-67
2022/04/05 03:49:03;;;;;;;0.30;0.30;;;6.20;99.90;;;;;;5022990;28;20104;-68
2022/04/05 03:51:29;;;;;;;0.10;0.10;;;6.10;99.90;;;;;;5018170;28;20030;-67
2022/04/05 03:53:55;;;;;;;0.10;0.10;;;6.10;99.90;;;;;;5030079;28;20143;-69
2022/04/05 03:56:22;;;;;;;0.10;0.10;;;6.10;99.90;;;;;;5010733;28;20022;-68
2022/04/05 03:58:48;;;;;;;0.10;0.10;;;6.10;99.90;;;;;;5010079;28;20076;-68
2022/04/05 04:01:14;;;;;;;0.10;0.10;;;6.20;99.90;;;;;;4990912;28;20027;-67
2022/04/05 04:03:40;;;;;;;0.10;0.10;;;6.20;99.90;;;;;;4990607;28;20026;-68
2022/04/05 04:06:05;;;;;;;0.10;0.10;;;6.20;99.90;;;;;;4990021;28;20109;-68
2022/04/05 04:08:31;;;;;;;0.10;0.10;;;6.70;99.90;;;;;;4991073;28;20081;-66
2022/04/05 04:10:57;;;;;;;0.10;0.10;;;6.20;99.90;;;;;;4990589;28;20505;-67
2022/04/05 04:13:23;;;;;;;0.10;0.10;;;6.20;99.90;;;;;;5009656;28;20537;-66
2022/04/05 04:15:48;;;;;;;0.10;0.10;;;6.30;99.90;;;;;;5006123;28;20105;-68
2022/04/05 04:18:14;;;;;;;0.10;0.10;;;6.20;99.90;;;;;;4990143;28;20402;-68
2022/04/05 04:20:42;;;;;;;0.10;0.10;;;6.20;99.90;;;;;;4998612;28;20468;-67
2022/04/05 04:23:08;;;;;;;0.10;0.10;;;6.20;99.90;;;;;;5010025;28;20113;-67
2022/04/05 04:25:34;;;;;;;0.10;0.10;;;6.10;99.90;;;;;;5001551;28;20044;-66
2022/04/05 04:28:00;;;;;;;0.10;0.10;;;6.10;99.90;;;;;;4990240;28;20053;-68
2022/04/05 04:30:26;;;;;;;0.10;0.10;;;6.10;99.90;;;;;;5014382;28;20053;-67
2022/04/05 04:32:53;;;;;;;0.10;0.10;;;6.20;99.90;;;;;;5029581;28;20021;-68
2022/04/05 04:35:20;;;;;;;0.10;0.10;;;6.10;99.90;;;;;;5004655;28;20029;-67
2022/04/05 04:37:46;;;;;;;0.10;0.10;;;6.00;99.90;;;;;;5009374;28;20101;-68
2022/04/05 04:40:12;;;;;;;0.10;0.10;;;6.10;99.90;;;;;;5009671;28;20033;-67
2022/04/05 04:42:38;;;;;;;0.13;0.13;;;6.00;99.90;;;;;;5009384;28;20049;-66
2022/04/05 04:45:04;;;;;;;0.10;0.10;;;6.00;99.90;;;;;;5017135;28;20044;-68
2022/04/05 04:47:29;;;;;;;0.20;0.20;;;6.00;99.90;;;;;;5023224;28;20025;-68
2022/04/05 04:49:55;;;;;;;0.10;0.10;;;6.00;99.90;;;;;;5018916;28;20022;-67
2022/04/05 04:52:21;;;;;;;0.10;0.10;;;6.00;99.90;;;;;;4988872;28;20076;-67
2022/04/05 04:54:46;;;;;;;0.10;0.10;;;5.90;99.90;;;;;;4990109;28;20034;-67
2022/04/05 04:57:12;;;;;;;0.30;0.30;;;5.90;99.90;;;;;;4989850;28;20544;-66
2022/04/05 04:59:38;;;;;;;0.10;0.10;;;5.90;99.90;;;;;;4990242;28;20038;-67
2022/04/05 05:02:03;;;;;;;0.10;0.10;;;6.10;99.90;;;;;;4990797;28;20790;-68
2022/04/05 05:04:30;;;;;;;0.10;0.10;;;6.00;99.90;;;;;;5009613;28;20036;-67
2022/04/05 05:06:56;;;;;;;0.10;0.10;;;5.90;99.90;;;;;;5002868;28;20023;-67
2022/04/05 05:09:21;;;;;;;0.10;0.10;;;5.90;99.90;;;;;;4990176;28;20037;-67
2022/04/05 05:11:47;;;;;;;0.10;0.10;;;5.90;99.90;;;;;;4990777;28;20030;-67
2022/04/05 05:14:13;;;;;;;0.10;0.10;;;5.90;99.90;;;;;;4995426;28;20018;-67
2022/04/05 05:16:38;;;;;;;0.10;0.10;;;6.00;99.90;;;;;;4989756;28;20096;-68
2022/04/05 05:19:05;;;;;;;0.10;0.10;;;5.90;99.90;;;;;;4990366;28;20113;-69
2022/04/05 05:21:31;;;;;;;0.10;0.10;;;6.00;99.90;;;;;;5009434;28;20026;-68
2022/04/05 05:23:56;;;;;;;0.20;0.20;;;6.00;99.90;;;;;;5005447;28;21061;-70
2022/04/05 05:26:22;;;;;;;0.77;0.77;;;6.00;99.90;;;;;;4989595;28;20030;-69
2022/04/05 05:28:48;;;;;;;0.10;0.10;;;6.00;99.90;;;;;;4990294;28;20054;-70
2022/04/05 05:34:08;;;;;;;0.10;0.10;;;6.00;99.90;;;;;;6071633;22;20259;-66
2022/04/05 05:36:34;;;;;;;0.10;0.10;;;6.00;99.90;;;;;;5016806;28;20519;-66
2022/04/05 05:38:59;;;;;;;0.10;0.10;;;6.00;99.90;;;;;;5025708;28;20053;-67
2022/04/05 05:41:25;;;;;;;0.20;0.20;;;6.00;99.90;;;;;;5027444;28;20099;-68
2022/04/05 05:43:51;;;;;;;0.10;0.10;;;6.00;99.90;;;;;;5024458;28;20034;-65
2022/04/05 05:46:16;;;;;;;0.10;0.10;;;6.00;99.90;;;;;;5006098;28;20076;-68
2022/04/05 05:48:42;;;;;;;0.10;0.10;;;6.00;99.90;;;;;;4991154;28;20102;-68
2022/04/05 05:51:08;;;;;;;0.10;0.10;;;6.00;99.90;;;;;;5054758;22;20045;-71
2022/04/05 05:53:34;;;;;;;0.10;0.10;;;6.00;99.90;;;;;;5024874;28;20087;-70
2022/04/05 05:56:00;;;;;;;0.10;0.10;;;6.00;99.90;;;;;;5029771;28;20377;-69
2022/04/05 05:58:26;;;;;;;0.10;0.10;;;6.00;99.90;;;;;;5032067;28;20101;-69
2022/04/05 06:00:52;;;;;;;0.10;0.10;;;6.00;99.90;;;;;;5025089;28;20543;-71
2022/04/05 06:03:18;;;;;;;0.10;0.10;;;5.90;99.90;;;;;;5031101;28;20037;-71
2022/04/05 06:05:44;;;;;;;1.35;1.35;;;6.00;99.90;;;;;;5025841;28;20025;-69
2022/04/05 06:08:10;;;;;;;0.10;0.10;;;6.00;99.90;;;;;;5031834;28;20036;-70
2022/04/05 06:10:36;;;;;;;0.10;0.10;;;6.00;99.90;;;;;;5032028;28;20053;-68
2022/04/05 06:13:01;;;;;;;0.38;0.38;;;5.90;99.90;;;;;;5027264;28;20037;-73
2022/04/05 06:15:28;;;;;;;0.10;0.10;;;5.90;99.90;;;;;;5024918;28;20085;-72
2022/04/05 06:17:55;;;;;;;0.10;0.10;;;5.90;99.90;;;;;;5028422;28;20052;-70
2022/04/05 06:20:22;;;;;;;0.10;0.10;;;5.90;99.90;;;;;;5028722;28;20060;-70
2022/04/05 06:22:48;;;;;;;1.38;1.27;;;5.80;99.90;;;;;;5024376;28;20030;-72
2022/04/05 06:25:19;;;;;;;0.10;0.10;;;5.80;99.90;;;;;;5025157;28;20029;-68
2022/04/05 06:27:45;;;;;;;0.10;0.10;;;5.80;99.90;;;;;;5027606;28;20026;-71
2022/04/05 06:30:13;;;;;;;0.10;0.10;;;5.80;99.90;;;;;;5028988;28;20477;-71
2022/04/05 06:32:39;;;;;;;0.10;0.10;;;5.80;99.90;;;;;;5026464;28;20523;-71
2022/04/05 06:35:07;;;;;;;0.10;0.10;;;5.80;99.90;;;;;;5028055;28;20112;-69
2022/04/05 06:37:35;;;;;;;0.10;0.10;;;5.80;99.90;;;;;;5028763;28;20029;-69
2022/04/05 06:40:02;;;;;;;0.45;0.45;;;5.80;99.90;;;;;;5028945;28;20026;-70
2022/04/05 06:42:29;;;;;;;0.10;0.10;;;5.80;99.90;;;;;;5028318;28;20048;-69
2022/04/05 06:44:54;;;;;;;0.10;0.10;;;5.80;99.90;;;;;;5028849;28;20129;-70
2022/04/05 06:47:20;;;;;;;1.98;1.85;;;5.90;99.90;;;;;;5027853;28;20029;-70
2022/04/05 06:49:46;;;;;;;0.20;0.20;;;5.90;99.90;;;;;;5027992;28;20420;-70
2022/04/05 06:52:12;;;;;;;0.10;0.10;;;5.80;99.90;;;;;;5029108;28;20484;-69
2022/04/05 06:54:38;;;;;;;0.10;0.10;;;5.90;99.90;;;;;;5027885;28;20033;-70
2022/04/05 06:57:03;;;;;;;0.10;0.10;;;5.90;99.90;;;;;;5028933;28;20450;-71
2022/04/05 06:59:29;;;;;;;0.10;0.10;;;5.90;99.90;;;;;;5028546;28;20061;-72
2022/04/05 07:01:55;;;;;;;0.57;0.57;;;5.90;99.90;;;;;;5028731;28;20475;-73
2022/04/05 07:04:20;;;;;;;0.10;0.10;;;6.00;99.90;;;;;;5027260;28;20120;-69
2022/04/05 07:06:46;;;;;;;0.10;0.10;;;6.00;99.90;;;;;;5027770;28;20408;-71
2022/04/05 07:09:12;;;;;;;0.10;0.10;;;6.10;99.90;;;;;;5029655;28;20053;-71
2022/04/05 07:11:37;;;;;;;0.10;0.10;;;6.20;99.90;;;;;;5027464;28;20385;-70
2022/04/05 07:14:03;;;;;;;0.10;0.10;;;6.10;99.90;;;;;;5027888;28;20025;-68
2022/04/05 07:16:29;;;;;;;0.10;0.10;;;6.20;99.90;;;;;;5024895;28;20033;-69
2022/04/05 07:18:55;;;;;;;0.10;0.10;;;6.20;99.90;;;;;;5025381;28;20492;-67
2022/04/05 07:21:20;;;;;;;0.10;0.10;;;6.20;99.90;;;;;;5027618;28;20503;-69
2022/04/05 07:23:49;;;;;;;0.10;0.10;;;6.20;99.90;;;;;;5026998;28;20056;-69
2022/04/05 07:26:15;;;;;;;0.10;0.10;;;6.30;99.90;;;;;;5027458;28;20033;-69
2022/04/05 07:28:41;;;;;;;0.10;0.10;;;6.40;99.90;;;;;;5030518;28;20354;-69
2022/04/05 07:31:06;;;;;;;0.10;0.10;;;6.40;99.90;;;;;;5027347;28;20028;-72
2022/04/05 07:33:32;;;;;;;0.10;0.10;;;6.40;99.90;;;;;;5025407;28;20030;-71
2022/04/05 07:35:58;;;;;;;0.10;0.10;;;6.40;99.90;;;;;;5026847;28;20033;-70
2022/04/05 07:38:26;;;;;;;0.10;0.10;;;6.50;99.90;;;;;;5028073;28;20025;-70
2022/04/05 07:40:52;;;;;;;0.10;0.10;;;6.50;99.90;;;;;;5028326;28;20087;-72
2022/04/05 07:43:23;;;;;;;0.10;0.10;;;6.50;99.90;;;;;;5025397;28;20026;-72
2022/04/05 07:45:49;;;;;;;0.10;0.10;;;6.50;99.90;;;;;;5026627;28;20142;-72
2022/04/05 07:48:22;;;;;;;0.10;0.10;;;6.60;99.90;;;;;;5027087;28;20188;-73
2022/04/05 07:50:49;;;;;;;0.10;0.10;;;6.60;99.90;;;;;;5028404;28;20109;-72
2022/04/05 07:53:15;;;;;;;0.10;0.10;;;6.60;99.90;;;;;;5025823;28;20054;-71
2022/04/05 07:55:41;;;;;;;0.10;0.10;;;6.70;99.90;;;;;;5025075;28;20193;-70
2022/04/05 07:58:07;;;;;;;0.10;0.10;;;6.70;99.90;;;;;;5029962;28;20162;-69
2022/04/05 08:00:33;;;;;;;0.40;0.40;;;6.70;99.90;;;;;;5028211;28;20104;-69
2022/04/05 08:02:59;;;;;;;0.10;0.10;;;6.70;99.90;;;;;;5027662;28;20762;-71
2022/04/05 08:05:25;;;;;;;0.10;0.10;;;6.80;99.90;;;;;;5027940;28;20025;-70
2022/04/05 08:07:51;;;;;;;0.10;0.10;;;6.90;99.90;;;;;;5027780;28;20083;-70
2022/04/05 08:10:17;;;;;;;0.10;0.10;;;7.00;99.90;;;;;;5028355;28;20488;-69
2022/04/05 08:12:44;;;;;;;0.10;0.10;;;7.00;99.90;;;;;;5028160;28;20030;-70
2022/04/05 08:15:18;;;;;;;0.10;0.10;;;7.10;99.90;;;;;;5027606;28;20468;-70
2022/04/05 08:17:45;;;;;;;0.10;0.10;;;7.20;99.90;;;;;;5026240;28;20086;-71
2022/04/05 08:20:12;;;;;;;0.10;0.10;;;7.30;99.90;;;;;;5027881;28;20017;-71
2022/04/05 08:22:38;;;;;;;0.10;0.10;;;7.30;99.90;;;;;;5028180;28;20504;-70
2022/04/05 08:25:05;;;;;;;0.10;0.10;;;7.40;99.90;;;;;;5027387;28;20022;-70
2022/04/05 08:27:31;;;;;;;0.40;0.40;;;7.40;99.90;;;;;;5027159;28;20025;-69
2022/04/05 08:29:56;;;;;;;0.10;0.10;;;7.40;99.90;;;;;;5027422;28;20029;-70
2022/04/05 08:32:22;;;;;;;0.10;0.10;;;7.40;99.90;;;;;;5028555;28;20581;-69
2022/04/05 08:34:48;;;;;;;0.10;0.10;;;7.40;99.90;;;;;;5027597;28;20120;-70
2022/04/05 08:37:14;;;;;;;0.10;0.10;;;7.40;99.90;;;;;;5028436;28;20484;-70
2022/04/05 08:39:40;;;;;;;0.50;0.50;;;7.50;99.90;;;;;;5028603;28;20032;-69
2022/04/05 08:42:07;;;;;;;0.80;0.80;;;7.50;99.90;;;;;;5028057;28;20021;-67
2022/04/05 08:44:34;;;;;;;0.10;0.10;;;7.50;99.90;;;;;;5028115;28;20481;-70
2022/04/05 08:47:01;;;;;;;0.10;0.10;;;7.50;99.90;;;;;;5029184;28;20080;-68
2022/04/05 08:49:28;;;;;;;0.10;0.10;;;7.60;99.90;;;;;;5028906;28;20029;-71
2022/04/05 08:51:54;;;;;;;0.10;0.10;;;7.70;99.90;;;;;;5029044;28;20627;-72
2022/04/05 08:54:20;;;;;;;0.20;0.20;;;7.70;99.90;;;;;;5030480;28;20139;-73
2022/04/05 08:56:47;;;;;;;0.10;0.10;;;8.00;99.90;;;;;;5027563;28;20036;-69
2022/04/05 08:59:13;;;;;;;0.10;0.10;;;7.80;99.90;;;;;;5025610;28;20504;-68
2022/04/05 09:01:40;;;;;;;0.10;0.10;;;7.90;99.90;;;;;;5025805;28;20029;-70
2022/04/05 09:04:06;;;;;;;0.10;0.10;;;8.00;99.90;;;;;;5029966;28;20018;-68
2022/04/05 09:06:34;;;;;;;0.10;0.10;;;8.10;99.90;;;;;;5028821;28;20152;-70
2022/04/05 09:09:09;;;;;;;0.10;0.10;;;8.20;99.90;;;;;;5029946;28;20105;-72
2022/04/05 09:11:41;;;;;;;0.10;0.10;;;8.20;99.90;;;;;;5026315;28;20049;-73
2022/04/05 09:14:07;;;;;;;0.10;0.10;;;8.30;99.90;;;;;;5026420;28;20064;-68
2022/04/05 09:16:34;;;;;;;0.10;0.10;;;8.30;99.90;;;;;;5027305;28;20388;-69
2022/04/05 09:19:08;;;;;;;0.10;0.10;;;8.40;99.90;;;;;;5027050;28;20021;-68
2022/04/05 09:21:57;;;;;;;0.10;0.10;;;8.40;99.90;;;;;;5023931;28;20029;-70
2022/04/05 09:24:35;;;;;;;0.10;0.10;;;8.40;99.90;;;;;;5026222;28;20147;-70
2022/04/05 09:27:02;;;;;;;0.10;0.10;;;8.50;99.90;;;;;;5027480;28;20105;-70
2022/04/05 09:29:59;;;;;;;0.10;0.10;;;8.50;99.90;;;;;;5028501;28;20492;-69
2022/04/05 09:32:36;;;;;;;0.10;0.10;;;8.60;99.90;;;;;;5026088;28;20037;-68
2022/04/05 09:35:04;;;;;;;0.10;0.10;;;8.60;99.90;;;;;;5028470;28;20030;-69
2022/04/05 09:37:30;;;;;;;0.10;0.10;;;8.70;99.90;;;;;;5030647;28;20529;-70
2022/04/05 09:40:14;;;;;;;0.10;0.10;;;8.70;99.90;;;;;;5030302;28;20561;-69
2022/04/05 09:43:00;;;;;;;0.10;0.10;;;8.70;99.90;;;;;;5030178;28;20519;-68
2022/04/05 09:45:49;;;;;;;0.10;0.10;;;8.80;99.90;;;;;;5029768;28;20571;-68
2022/04/05 09:48:20;;;;;;;0.10;0.10;;;8.90;99.90;;;;;;5032187;28;20105;-69
2022/04/05 09:50:59;;;;;;;0.10;0.10;;;8.90;99.90;;;;;;5028095;28;20053;-68
2022/04/05 09:53:27;;;;;;;0.10;0.10;;;8.90;99.90;;;;;;5029799;28;20071;-68
2022/04/05 09:56:38;;;;;;;0.10;0.10;;;8.80;99.90;;;;;;5028641;28;20079;-69
2022/04/05 09:59:18;;;;;;;0.10;0.10;;;8.80;99.90;;;;;;5011357;28;20069;-69
2022/04/05 10:01:47;;;;;;;0.10;0.10;;;8.80;99.90;;;;;;5027002;28;20025;-68
2022/04/05 10:04:15;;;;;;;0.10;0.10;;;8.70;99.90;;;;;;5029236;28;20033;-71
2022/04/05 10:06:46;;;;;;;0.30;0.30;;;8.70;99.90;;;;;;5029101;28;20058;-69
2022/04/05 10:09:16;;;;;;;0.10;0.10;;;8.60;99.90;;;;;;5025334;28;20029;-70
2022/04/05 10:11:44;;;;;;;0.10;0.10;;;8.50;99.90;;;;;;5030712;28;20095;-72
2022/04/05 10:14:12;;;;;;;0.10;0.10;;;8.50;99.90;;;;;;5029789;28;20714;-71
2022/04/05 10:16:38;;;;;;;0.10;0.10;;;8.50;99.90;;;;;;5031403;28;20564;-70
2022/04/05 10:19:07;;;;;;;0.10;0.10;;;8.50;99.90;;;;;;5032435;28;20041;-69
2022/04/05 10:21:35;;;;;;;0.10;0.10;;;8.50;99.90;;;;;;5031846;28;20029;-71
2022/04/05 10:24:02;;;;;;;0.10;0.10;;;8.50;99.90;;;;;;5029864;28;20025;-69
2022/04/05 10:26:30;;;;;;;0.77;0.73;;;8.50;99.90;;;;;;5030435;28;20030;-70
2022/04/05 10:28:58;;;;;;;0.10;0.10;;;8.50;99.90;;;;;;5031823;28;20105;-70
2022/04/05 10:31:36;;;;;;;0.10;0.10;;;8.50;99.90;;;;;;5033424;28;20036;-69
2022/04/05 10:34:20;;;;;;;2.28;2.17;;;8.60;99.90;;;;;;5031654;28;20373;-71
2022/04/05 10:37:09;;;;;;;0.10;0.10;;;8.50;99.90;;;;;;5032114;28;20132;-70
2022/04/05 10:39:37;;;;;;;0.10;0.10;;;8.50;99.90;;;;;;5031844;28;20021;-70
2022/04/05 10:42:08;;;;;;;0.10;0.10;;;8.40;99.90;;;;;;5028679;28;20052;-71
2022/04/05 10:44:36;;;;;;;0.20;0.20;;;8.40;99.90;;;;;;5031234;28;20040;-71
2022/04/05 10:47:04;;;;;;;0.10;0.10;;;8.40;99.90;;;;;;5028577;28;20033;-71
2022/04/05 10:49:34;;;;;;;0.10;0.10;;;8.50;99.90;;;;;;5028587;28;20040;-71
2022/04/05 10:52:15;;;;;;;0.10;0.10;;;8.50;99.90;;;;;;5024089;28;20030;-71
2022/04/05 10:54:49;;;;;;;0.10;0.10;;;8.60;99.90;;;;;;5025672;28;20060;-70
2022/04/05 10:57:35;;;;;;;0.10;0.10;;;8.60;99.90;;;;;;5031584;28;20060;-71
2022/04/05 11:00:10;;;;;;;0.10;0.10;;;8.70;99.90;;;;;;5028902;28;20037;-71
2022/04/05 11:02:36;;;;;;;0.10;0.10;;;8.80;99.90;;;;;;5029133;28;20471;-72
2022/04/05 11:05:24;;;;;;;0.10;0.10;;;8.80;99.90;;;;;;5028596;28;20049;-71
2022/04/05 11:07:58;;;;;;;0.10;0.10;;;8.80;99.90;;;;;;5028757;28;20038;-70
2022/04/05 11:10:36;;;;;;;0.10;0.10;;;8.90;99.90;;;;;;5029920;28;20037;-72
2022/04/05 11:13:07;;;;;;;0.10;0.10;;;9.00;99.90;;;;;;5032559;28;20017;-71
2022/04/05 11:15:46;;;;;;;0.10;0.10;;;9.00;99.90;;;;;;5027447;28;20029;-70
2022/04/05 11:18:16;;;;;;;0.10;0.10;;;9.10;99.90;;;;;;5034316;28;20026;-70
2022/04/05 11:20:44;;;;;;;0.10;0.10;;;9.20;99.90;;;;;;5033673;28;20081;-69
2022/04/05 11:23:11;;;;;;;0.10;0.10;;;9.20;99.90;;;;;;5028616;28;20025;-71
2022/04/05 11:25:37;;;;;;;0.10;0.10;;;9.30;99.90;;;;;;5031897;28;20056;-71
2022/04/05 11:28:12;;;;;;;0.10;0.10;;;9.40;99.90;;;;;;5034305;28;20021;-72
2022/04/05 11:30:55;;;;;;;0.10;0.10;;;9.50;99.90;;;;;;5033077;28;20044;-72
2022/04/05 11:33:21;;;;;;;0.10;0.10;;;9.50;99.90;;;;;;5033770;28;20029;-71
2022/04/05 11:35:49;;;;;;;0.10;0.10;;;9.50;99.90;;;;;;5033575;28;20526;-71
2022/04/05 11:38:18;;;;;;;0.10;0.10;;;9.40;99.90;;;;;;5030771;28;20036;-71
2022/04/05 11:40:45;;;;;;;0.10;0.10;;;9.50;99.90;;;;;;5034142;28;20291;-72
2022/04/05 11:43:18;;;;;;;0.10;0.10;;;9.50;99.90;;;;;;5029141;28;20151;-71
2022/04/05 11:45:47;;;;;;;0.10;0.10;;;9.60;99.90;;;;;;5031753;28;20041;-71
2022/04/05 11:48:20;;;;;;;0.10;0.10;;;9.70;99.90;;;;;;5030791;28;20036;-70
2022/04/05 11:50:47;;;;;;;0.10;0.10;;;9.80;99.90;;;;;;5047028;22;20100;-65
2022/04/05 11:53:23;;;;;;;1.27;1.27;;;9.90;99.90;;;;;;5025996;28;20468;-67
2022/04/05 11:56:12;;;;;;;0.10;0.10;;;10.00;99.90;;;;;;5050147;28;20124;-68
2022/04/05 11:58:46;;;;;;;0.10;0.10;;;10.10;99.90;;;;;;5031234;28;20032;-71
2022/04/05 12:01:13;;;;;;;0.10;0.10;;;10.10;99.90;;;;;;5030966;28;20075;-66
2022/04/05 12:03:44;;;;;;;0.10;0.10;;;10.10;99.90;;;;;;5028569;28;20025;-66
2022/04/05 12:06:09;;;;;;;0.10;0.10;;;10.20;99.90;;;;;;5027354;28;20064;-70
2022/04/05 12:08:35;;;;;;;0.30;0.30;;;10.30;99.90;;;;;;5026215;28;20021;-69
2022/04/05 12:11:01;;;;;;;0.10;0.10;;;10.30;99.90;;;;;;5028221;28;20033;-67
2022/04/05 12:13:31;;;;;;;0.10;0.10;;;10.30;99.90;;;;;;5029902;28;20033;-68
2022/04/05 12:15:59;;;;;;;0.20;0.20;;;10.30;99.90;;;;;;5030074;28;20220;-67
2022/04/05 12:18:27;;;;;;;0.10;0.10;;;10.40;99.90;;;;;;5029749;28;20108;-67
2022/04/05 12:20:57;;;;;;;0.10;0.10;;;10.30;99.90;;;;;;5029028;28;20021;-71
2022/04/05 12:23:28;;;;;;;0.10;0.10;;;10.30;99.90;;;;;;5030230;28;20021;-66
2022/04/05 12:26:06;;;;;;;0.10;0.10;;;10.20;99.90;;;;;;5023262;28;20033;-69
2022/04/05 12:28:37;;;;;;;0.10;0.10;;;10.30;99.90;;;;;;5027521;28;20029;-67
2022/04/05 12:31:06;;;;;;;0.10;0.10;;;10.30;99.90;;;;;;5028113;28;20744;-67
2022/04/05 12:33:33;;;;;;;0.10;0.10;;;10.50;99.90;;;;;;5026458;28;20132;-67
2022/04/05 12:36:02;;;;;;;0.10;0.10;;;10.60;99.90;;;;;;5027182;28;20056;-67
2022/04/05 12:38:28;;;;;;;0.10;0.10;;;10.60;99.90;;;;;;5027415;28;20121;-67
2022/04/05 12:40:53;;;;;;;0.10;0.10;;;10.60;99.90;;;;;;5027651;28;20342;-68
2022/04/05 12:43:20;;;;;;;0.10;0.10;;;10.50;99.90;;;;;;5026758;28;20099;-69
2022/04/05 12:45:47;;;;;;;0.10;0.10;;;10.50;99.90;;;;;;5027768;28;20037;-68
2022/04/05 12:48:18;;;;;;;0.10;0.10;;;10.40;99.90;;;;;;5027683;28;20060;-67
2022/04/05 12:50:46;;;;;;;0.10;0.10;;;10.60;99.90;;;;;;5024285;28;20126;-68
2022/04/05 12:53:21;;;;;;;0.10;0.10;;;10.70;99.90;;;;;;5028935;28;20100;-67
2022/04/05 12:56:08;;;;;;;0.10;0.10;;;10.70;99.90;;;;;;5035975;28;20029;-68
2022/04/05 12:58:45;;;;;;;0.43;0.43;;;10.80;99.90;;;;;;5030992;28;20528;-69
2022/04/05 13:01:23;;;;;;;0.10;0.10;;;10.70;99.90;;;;;;5031109;28;20037;-68
2022/04/05 13:03:56;;;;;;;0.10;0.10;;;10.60;99.90;;;;;;5026855;28;20029;-68